Time;durP1;ratioP1;P1;durP2;ratioP2;P2;SDS_P1;SDS_P2;PMS_P1;PMS_P2;Temp;Humidity;BMP_temperature;BMP_pressure;BME280_temperature;BME280_humidity;BME280_pressure;Samples;Min_cycle;Max_cycle;Signal;HPM_P1;HPM_P2
2021/03/26 00:00:18;;;;;;;24.03;14.83;;;;;;;;;;5116319;28;20447;-61
2021/03/26 00:02:45;;;;;;;20.50;12.37;;;;;;;;;;5116383;28;20455;-56
2021/03/26 00:05:13;;;;;;;20.83;13.23;;;;;;;;;;5116809;28;20454;-47
2021/03/26 00:07:41;;;;;;;24.30;13.70;;;;;;;;;;5116816;28;20453;-60
2021/03/26 00:10:09;;;;;;;24.10;13.30;;;;;;;;;;5116077;28;20497;-51
2021/03/26 00:12:36;;;;;;;22.70;13.00;;;;;;;;;;5116725;28;20485;-58
2021/03/26 00:18:10;;;;;;;26.20;14.30;;;;;;;;;;5115026;28;20212;-58
2021/03/26 00:20:37;;;;;;;24.47;13.63;;;;;;;;;;5116279;28;20455;-56
2021/03/26 00:23:14;;;;;;;24.40;14.02;;;;;;;;;;5116268;28;20455;-57
2021/03/26 00:25:44;;;;;;;37.47;14.53;;;;;;;;;;5116933;28;20216;-56
2021/03/26 00:28:11;;;;;;;22.20;14.67;;;;;;;;;;5115969;28;20455;-61
2021/03/26 00:30:39;;;;;;;21.67;15.03;;;;;;;;;;5116347;28;20474;-54
2021/03/26 00:33:06;;;;;;;24.13;14.82;;;;;;;;;;5116213;28;20458;-55
2021/03/26 00:35:39;;;;;;;19.57;13.67;;;;;;;;;;5116687;28;20213;-57
2021/03/26 00:38:09;;;;;;;19.50;14.90;;;;;;;;;;5116328;28;20491;-57
2021/03/26 00:40:36;;;;;;;22.93;15.67;;;;;;;;;;5116089;28;20467;-52
2021/03/26 00:43:03;;;;;;;21.70;14.50;;;;;;;;;;5116422;28;20463;-60
2021/03/26 00:45:41;;;;;;;18.80;13.90;;;;;;;;;;5116515;28;20455;-57
2021/03/26 00:48:10;;;;;;;18.63;13.80;;;;;;;;;;5116340;28;20197;-61
2021/03/26 00:50:39;;;;;;;24.60;14.43;;;;;;;;;;5116651;28;20431;-53
2021/03/26 00:56:10;;;;;;;24.50;15.40;;;;;;;;;;5116420;28;20505;-59
2021/03/26 00:58:37;;;;;;;19.83;13.40;;;;;;;;;;5115845;28;20435;-56
2021/03/26 01:01:04;;;;;;;19.87;13.30;;;;;;;;;;5115954;28;20455;-60
2021/03/26 01:03:32;;;;;;;34.60;20.48;;;;;;;;;;5115768;28;20454;-53
2021/03/26 01:06:01;;;;;;;48.70;27.52;;;;;;;;;;5115610;28;20213;-61
2021/03/26 01:08:33;;;;;;;25.92;17.67;;;;;;;;;;5115754;28;20219;-60
2021/03/26 01:11:01;;;;;;;25.50;16.08;;;;;;;;;;5115919;28;20220;-58
2021/03/26 01:13:28;;;;;;;25.30;16.38;;;;;;;;;;5115850;28;20219;-56
2021/03/26 01:15:56;;;;;;;32.70;16.92;;;;;;;;;;5115772;28;20213;-49
2021/03/26 01:18:28;;;;;;;25.38;15.85;;;;;;;;;;5114032;28;20244;-55
2021/03/26 01:20:55;;;;;;;26.45;16.38;;;;;;;;;;5115426;28;20265;-52
2021/03/26 01:23:30;;;;;;;31.27;17.40;;;;;;;;;;5116134;28;20209;-56
2021/03/26 01:25:57;;;;;;;22.55;15.40;;;;;;;;;;5116037;28;20204;-58
2021/03/26 01:28:26;;;;;;;22.30;15.65;;;;;;;;;;5114788;28;20235;-58
2021/03/26 01:30:55;;;;;;;25.40;15.23;;;;;;;;;;5115124;28;20623;-55
2021/03/26 01:33:23;;;;;;;24.48;17.50;;;;;;;;;;5119774;28;20446;-49
2021/03/26 01:35:50;;;;;;;24.40;15.95;;;;;;;;;;5120164;28;20189;-54
2021/03/26 01:38:38;;;;;;;26.13;16.13;;;;;;;;;;5120178;28;20193;-56
2021/03/26 01:41:07;;;;;;;32.13;16.33;;;;;;;;;;5119699;28;20225;-55
2021/03/26 01:43:35;;;;;;;22.83;15.00;;;;;;;;;;5119966;28;20186;-57
2021/03/26 01:46:03;;;;;;;23.05;16.10;;;;;;;;;;5119306;28;20209;-47
2021/03/26 01:48:32;;;;;;;23.15;15.88;;;;;;;;;;5140257;28;20199;-51
2021/03/26 01:50:59;;;;;;;29.58;16.60;;;;;;;;;;5139985;28;20196;-52
2021/03/26 01:53:46;;;;;;;27.17;15.32;;;;;;;;;;5139433;28;20197;-55
2021/03/26 01:56:14;;;;;;;28.95;16.40;;;;;;;;;;5140306;27;20209;-58
2021/03/26 01:58:41;;;;;;;25.58;15.80;;;;;;;;;;5139975;28;20344;-57
2021/03/26 02:01:28;;;;;;;22.92;14.23;;;;;;;;;;5140017;28;20199;-52
2021/03/26 02:03:58;;;;;;;22.00;14.63;;;;;;;;;;5139873;28;20219;-53
2021/03/26 02:06:26;;;;;;;20.60;14.53;;;;;;;;;;5139213;28;20239;-56
2021/03/26 02:09:10;;;;;;;23.60;15.40;;;;;;;;;;5139228;28;20477;-57
2021/03/26 02:11:41;;;;;;;25.15;16.05;;;;;;;;;;5123221;28;20260;-56
2021/03/26 02:14:21;;;;;;;21.52;15.10;;;;;;;;;;5119808;28;20193;-57
2021/03/26 02:17:12;;;;;;;19.55;13.95;;;;;;;;;;5120223;28;20229;-58
2021/03/26 02:19:41;;;;;;;24.85;16.30;;;;;;;;;;5117766;28;20224;-59
2021/03/26 02:22:09;;;;;;;21.02;15.68;;;;;;;;;;5119118;28;20213;-55
2021/03/26 02:24:37;;;;;;;27.58;16.50;;;;;;;;;;5119379;28;20196;-56
2021/03/26 02:27:06;;;;;;;23.02;16.60;;;;;;;;;;5119657;28;20208;-61
2021/03/26 02:29:53;;;;;;;24.25;15.68;;;;;;;;;;5119433;28;20196;-55
2021/03/26 02:32:24;;;;;;;19.25;14.13;;;;;;;;;;5119596;28;20194;-58
2021/03/26 02:35:05;;;;;;;24.67;15.70;;;;;;;;;;5119671;28;20193;-60
2021/03/26 02:37:51;;;;;;;22.63;14.60;;;;;;;;;;5118065;28;20225;-53
2021/03/26 02:40:22;;;;;;;22.10;16.40;;;;;;;;;;5119528;28;20446;-52
2021/03/26 02:42:51;;;;;;;22.42;16.13;;;;;;;;;;5118546;28;20193;-57
2021/03/26 02:45:54;;;;;;;21.88;15.65;;;;;;;;;;5119679;28;20347;-56
2021/03/26 02:48:26;;;;;;;24.80;15.82;;;;;;;;;;5117406;28;20263;-51
2021/03/26 02:50:59;;;;;;;27.40;16.92;;;;;;;;;;5119505;28;20213;-54
2021/03/26 02:53:47;;;;;;;23.10;16.15;;;;;;;;;;5119117;28;20202;-54
2021/03/26 02:56:18;;;;;;;27.17;15.75;;;;;;;;;;5119399;28;20205;-52
2021/03/26 02:58:49;;;;;;;29.00;16.67;;;;;;;;;;5118745;28;20200;-58
2021/03/26 03:04:21;;;;;;;23.98;16.67;;;;;;;;;;5118556;28;20180;-54
2021/03/26 03:06:51;;;;;;;33.20;17.05;;;;;;;;;;5118409;28;20204;-56
2021/03/26 03:09:27;;;;;;;25.30;16.33;;;;;;;;;;5118920;28;20229;-60
2021/03/26 03:11:57;;;;;;;20.48;14.65;;;;;;;;;;5118744;28;20189;-55
2021/03/26 03:14:25;;;;;;;27.80;16.63;;;;;;;;;;5118798;28;20193;-55
2021/03/26 03:17:14;;;;;;;25.70;15.55;;;;;;;;;;5118678;28;20228;-56
2021/03/26 03:19:47;;;;;;;22.10;15.20;;;;;;;;;;5118898;28;20215;-58
2021/03/26 03:22:17;;;;;;;29.00;16.53;;;;;;;;;;5116044;28;20202;-54
2021/03/26 03:24:48;;;;;;;25.15;16.90;;;;;;;;;;5118106;28;20446;-55
2021/03/26 03:27:23;;;;;;;25.75;15.32;;;;;;;;;;5118489;28;20257;-56
2021/03/26 03:29:52;;;;;;;26.65;16.17;;;;;;;;;;5117778;28;20227;-58
2021/03/26 03:32:43;;;;;;;24.80;17.60;;;;;;;;;;5118131;28;20205;-58
2021/03/26 03:35:13;;;;;;;24.40;16.98;;;;;;;;;;5117701;28;20209;-58
2021/03/26 03:37:44;;;;;;;24.85;16.10;;;;;;;;;;5118296;28;20206;-51
2021/03/26 03:40:25;;;;;;;29.95;16.92;;;;;;;;;;5117953;28;20192;-50
2021/03/26 03:42:56;;;;;;;25.75;16.08;;;;;;;;;;5118290;28;20214;-54
2021/03/26 03:45:25;;;;;;;22.40;14.80;;;;;;;;;;5117881;28;20205;-55
2021/03/26 03:47:55;;;;;;;20.35;14.38;;;;;;;;;;5117795;28;20241;-56
2021/03/26 03:50:24;;;;;;;27.35;15.73;;;;;;;;;;5117682;28;20209;-56
2021/03/26 03:53:11;;;;;;;26.27;15.73;;;;;;;;;;5117580;28;20173;-54
2021/03/26 03:55:41;;;;;;;24.60;17.20;;;;;;;;;;5116776;28;20209;-55
2021/03/26 03:58:13;;;;;;;25.90;16.42;;;;;;;;;;5116155;28;20280;-55
2021/03/26 04:03:48;;;;;;;25.10;16.90;;;;;;;;;;5117816;28;20195;-56
2021/03/26 04:06:17;;;;;;;24.33;16.60;;;;;;;;;;5117547;28;20209;-62
2021/03/26 04:08:46;;;;;;;27.42;17.60;;;;;;;;;;5117767;28;20197;-54
2021/03/26 04:11:16;;;;;;;19.85;15.55;;;;;;;;;;5117745;28;20227;-56
2021/03/26 04:14:04;;;;;;;25.77;16.83;;;;;;;;;;5117612;28;20209;-58
2021/03/26 04:16:31;;;;;;;23.58;16.20;;;;;;;;;;5116844;28;20229;-56
2021/03/26 04:19:01;;;;;;;28.85;16.92;;;;;;;;;;5116456;28;20212;-55
2021/03/26 04:21:38;;;;;;;24.55;15.75;;;;;;;;;;5116339;28;20198;-59
2021/03/26 04:24:09;;;;;;;28.27;16.52;;;;;;;;;;5114502;28;20227;-58
2021/03/26 04:26:38;;;;;;;26.95;16.35;;;;;;;;;;5116531;28;20221;-54
2021/03/26 04:29:10;;;;;;;28.95;16.20;;;;;;;;;;5117212;28;20201;-58
2021/03/26 04:31:40;;;;;;;28.52;16.45;;;;;;;;;;5115573;28;20281;-58
2021/03/26 04:34:07;;;;;;;27.30;17.55;;;;;;;;;;5116711;28;20252;-51
2021/03/26 04:37:12;;;;;;;32.90;19.30;;;;;;;;;;5116524;28;20239;-60
2021/03/26 04:39:43;;;;;;;28.55;17.23;;;;;;;;;;5115345;28;20220;-62
2021/03/26 04:42:11;;;;;;;27.45;16.90;;;;;;;;;;5117362;28;20205;-58
2021/03/26 04:44:59;;;;;;;23.08;17.45;;;;;;;;;;5116970;28;20365;-54
2021/03/26 04:47:29;;;;;;;24.33;16.35;;;;;;;;;;5114807;28;20216;-59
2021/03/26 04:49:58;;;;;;;26.45;17.38;;;;;;;;;;5116409;28;20233;-57
2021/03/26 04:52:46;;;;;;;25.80;17.35;;;;;;;;;;5116531;28;20194;-57
2021/03/26 04:55:14;;;;;;;22.80;15.80;;;;;;;;;;5111925;28;20208;-51
2021/03/26 04:57:43;;;;;;;35.88;19.45;;;;;;;;;;5116711;28;20219;-59
2021/03/26 05:00:27;;;;;;;30.35;16.67;;;;;;;;;;5117032;28;20189;-53
2021/03/26 05:02:58;;;;;;;29.58;18.40;;;;;;;;;;5116967;28;20196;-54
2021/03/26 05:05:26;;;;;;;26.48;17.25;;;;;;;;;;5116446;28;20221;-60
2021/03/26 05:07:55;;;;;;;28.85;18.02;;;;;;;;;;5116696;28;20209;-58
2021/03/26 05:10:24;;;;;;;30.92;20.88;;;;;;;;;;5116133;28;20204;-56
2021/03/26 05:13:04;;;;;;;26.38;17.35;;;;;;;;;;5116755;28;20231;-54
2021/03/26 05:15:32;;;;;;;25.90;17.95;;;;;;;;;;5116754;28;20197;-60
2021/03/26 05:18:03;;;;;;;29.67;20.60;;;;;;;;;;5116413;28;20233;-57
2021/03/26 05:20:43;;;;;;;38.08;19.92;;;;;;;;;;5096000;28;20358;-59
2021/03/26 05:23:12;;;;;;;26.40;18.05;;;;;;;;;;5096334;28;20213;-54
2021/03/26 05:25:40;;;;;;;33.78;20.90;;;;;;;;;;5096234;28;20308;-58
2021/03/26 05:28:14;;;;;;;30.98;20.00;;;;;;;;;;5114651;28;20197;-56
2021/03/26 05:30:42;;;;;;;29.55;19.15;;;;;;;;;;5113891;28;20200;-59
2021/03/26 05:33:15;;;;;;;36.67;21.15;;;;;;;;;;5133446;28;20283;-56
2021/03/26 05:35:53;;;;;;;32.60;20.23;;;;;;;;;;5100699;28;20185;-53
2021/03/26 05:38:22;;;;;;;31.17;20.38;;;;;;;;;;5115709;28;20323;-54
2021/03/26 05:43:58;;;;;;;29.52;19.27;;;;;;;;;;5108068;28;20204;-54
2021/03/26 05:46:31;;;;;;;34.63;22.10;;;;;;;;;;5115570;28;20224;-58
2021/03/26 05:52:20;;;;;;;35.55;22.00;;;;;;;;;;5106162;28;20259;-55
2021/03/26 05:54:58;;;;;;;35.05;22.42;;;;;;;;;;5102773;28;20202;-61
2021/03/26 05:57:28;;;;;;;34.65;22.27;;;;;;;;;;5114464;28;20240;-57
2021/03/26 06:00:18;;;;;;;40.05;23.95;;;;;;;;;;5114368;28;20193;-61
2021/03/26 06:03:25;;;;;;;34.40;22.08;;;;;;;;;;5048116;28;20200;-50
2021/03/26 06:06:26;;;;;;;35.33;21.35;;;;;;;;;;5070458;28;20349;-53
2021/03/26 06:09:13;;;;;;;35.67;22.33;;;;;;;;;;5094786;28;20209;-58
2021/03/26 06:11:54;;;;;;;27.75;21.30;;;;;;;;;;5093999;28;20189;-50
2021/03/26 06:14:38;;;;;;;37.45;22.05;;;;;;;;;;5050428;28;20224;-55
2021/03/26 06:17:37;;;;;;;33.60;21.20;;;;;;;;;;5094299;28;20261;-51
2021/03/26 06:20:22;;;;;;;30.05;20.85;;;;;;;;;;5002221;28;20209;-59
2021/03/26 06:25:59;;;;;;;37.30;21.23;;;;;;;;;;5098001;28;20212;-55
2021/03/26 06:28:30;;;;;;;31.27;21.13;;;;;;;;;;5097408;28;20213;-56
2021/03/26 06:31:18;;;;;;;32.10;20.47;;;;;;;;;;5096978;28;20221;-58
2021/03/26 06:33:58;;;;;;;42.63;23.40;;;;;;;;;;5094415;28;20456;-51
2021/03/26 06:36:42;;;;;;;32.65;22.10;;;;;;;;;;5096219;28;20194;-57
2021/03/26 06:39:28;;;;;;;34.10;21.00;;;;;;;;;;5097005;28;20232;-63
2021/03/26 06:42:15;;;;;;;39.45;22.65;;;;;;;;;;5096994;28;20452;-56
2021/03/26 06:44:52;;;;;;;32.60;20.57;;;;;;;;;;5113813;28;20212;-51
2021/03/26 06:47:26;;;;;;;36.53;21.40;;;;;;;;;;5076062;28;20444;-57
2021/03/26 06:49:58;;;;;;;40.03;23.35;;;;;;;;;;5076270;28;20455;-62
2021/03/26 06:52:38;;;;;;;35.67;23.90;;;;;;;;;;5096138;28;20209;-60
2021/03/26 06:55:12;;;;;;;34.87;23.60;;;;;;;;;;5096877;28;20499;-58
2021/03/26 06:58:00;;;;;;;38.30;22.33;;;;;;;;;;5079782;28;20476;-54
2021/03/26 07:03:41;;;;;;;35.27;25.60;;;;;;;;;;5094904;28;20446;-59
2021/03/26 07:06:36;;;;;;;38.73;24.07;;;;;;;;;;5092619;28;20619;-60
2021/03/26 07:09:17;;;;;;;29.40;21.53;;;;;;;;;;5098535;28;20448;-60
2021/03/26 07:12:14;;;;;;;39.90;24.50;;;;;;;;;;5117412;28;20475;-57
2021/03/26 07:14:46;;;;;;;36.27;23.40;;;;;;;;;;5073299;28;20464;-59
2021/03/26 07:25:20;;;;;;;36.30;23.10;;;;;;;;;;5114017;28;20205;-55
2021/03/26 07:28:08;;;;;;;33.13;22.60;;;;;;;;;;5095916;28;20251;-57
2021/03/26 07:30:42;;;;;;;37.53;23.40;;;;;;;;;;5096100;28;20451;-58
2021/03/26 07:33:14;;;;;;;34.50;23.13;;;;;;;;;;5110674;28;20454;-58
2021/03/26 07:36:05;;;;;;;40.00;25.97;;;;;;;;;;5111947;28;20468;-62
2021/03/26 07:38:45;;;;;;;34.10;23.90;;;;;;;;;;5107607;28;20527;-59
2021/03/26 07:41:24;;;;;;;39.50;24.53;;;;;;;;;;5115406;28;20481;-58
2021/03/26 07:43:59;;;;;;;35.73;23.00;;;;;;;;;;5115965;28;20466;-59
2021/03/26 07:46:48;;;;;;;35.93;24.17;;;;;;;;;;5114828;28;20453;-58
2021/03/26 07:49:42;;;;;;;35.30;25.10;;;;;;;;;;5114583;28;20507;-61
2021/03/26 07:52:12;;;;;;;42.63;25.83;;;;;;;;;;5115556;28;20466;-56
2021/03/26 07:55:00;;;;;;;37.70;24.90;;;;;;;;;;5115225;28;20458;-57
2021/03/26 07:57:43;;;;;;;35.67;26.33;;;;;;;;;;5098240;28;20543;-58
2021/03/26 08:00:32;;;;;;;41.10;25.67;;;;;;;;;;5114347;28;20597;-61
2021/03/26 08:06:45;;;;;;;36.20;24.33;;;;;;;;;;5101137;28;20468;-61
2021/03/26 08:12:27;;;;;;;38.20;26.10;;;;;;;;;;5093542;28;20411;-56
2021/03/26 08:15:03;;;;;;;37.97;26.70;;;;;;;;;;5092961;28;20460;-57
2021/03/26 08:17:52;;;;;;;38.83;26.70;;;;;;;;;;5094191;28;20490;-58
2021/03/26 08:20:24;;;;;;;34.43;26.50;;;;;;;;;;5090816;28;20688;-52
2021/03/26 08:23:26;;;;;;;36.83;25.53;;;;;;;;;;5094143;28;20448;-51
2021/03/26 08:26:04;;;;;;;43.83;27.03;;;;;;;;;;5094276;28;20447;-61
2021/03/26 08:29:17;;;;;;;39.53;24.90;;;;;;;;;;5093945;28;20721;-59
2021/03/26 08:31:58;;;;;;;35.30;24.27;;;;;;;;;;5092761;28;20485;-56
2021/03/26 08:34:42;;;;;;;33.00;25.17;;;;;;;;;;5070928;28;20448;-56
2021/03/26 08:37:12;;;;;;;31.23;24.07;;;;;;;;;;5098732;28;20547;-58
2021/03/26 08:39:44;;;;;;;34.87;27.00;;;;;;;;;;5113993;28;20427;-59
2021/03/26 08:42:30;;;;;;;32.20;23.97;;;;;;;;;;5112815;28;20534;-58
2021/03/26 08:44:59;;;;;;;32.63;23.40;;;;;;;;;;5113458;28;20466;-56
2021/03/26 08:47:31;;;;;;;33.40;23.07;;;;;;;;;;5097366;28;20466;-58
2021/03/26 08:50:18;;;;;;;33.97;23.87;;;;;;;;;;5092752;28;20474;-58
2021/03/26 08:52:50;;;;;;;44.40;25.57;;;;;;;;;;5108615;28;20491;-60
2021/03/26 08:55:33;;;;;;;32.53;24.00;;;;;;;;;;5094495;28;20452;-59
2021/03/26 08:58:04;;;;;;;31.30;22.47;;;;;;;;;;5105423;28;20570;-58
2021/03/26 09:03:27;;;;;;;31.97;21.17;;;;;;;;;;5102009;28;20455;-62
2021/03/26 09:06:11;;;;;;;32.40;21.17;;;;;;;;;;5094051;28;20443;-60
2021/03/26 09:12:01;;;;;;;30.27;20.50;;;;;;;;;;5130399;28;20472;-60
2021/03/26 09:15:00;;;;;;;32.80;20.07;;;;;;;;;;5134116;28;20449;-56
2021/03/26 09:17:30;;;;;;;28.50;20.13;;;;;;;;;;5126361;28;20483;-60
2021/03/26 09:20:00;;;;;;;29.10;20.30;;;;;;;;;;5113024;28;20479;-57
2021/03/26 09:25:50;;;;;;;27.77;20.47;;;;;;;;;;5104541;28;20655;-56
2021/03/26 09:28:25;;;;;;;28.67;18.73;;;;;;;;;;5093355;28;20444;-55
2021/03/26 09:30:55;;;;;;;24.63;16.97;;;;;;;;;;5112786;28;20454;-61
2021/03/26 09:33:27;;;;;;;25.83;17.90;;;;;;;;;;5113457;28;20463;-59
2021/03/26 09:35:56;;;;;;;25.20;16.30;;;;;;;;;;5113505;28;20462;-57
2021/03/26 09:38:27;;;;;;;24.30;16.30;;;;;;;;;;5112630;28;20510;-58
2021/03/26 09:41:31;;;;;;;20.87;15.00;;;;;;;;;;5112369;28;20443;-58
2021/03/26 09:44:01;;;;;;;20.77;14.60;;;;;;;;;;5110001;28;20494;-59
2021/03/26 09:46:36;;;;;;;25.00;16.47;;;;;;;;;;5112754;28;20541;-59
2021/03/26 09:49:13;;;;;;;22.50;16.53;;;;;;;;;;5113034;28;20455;-58
2021/03/26 09:51:56;;;;;;;23.20;16.63;;;;;;;;;;5110432;28;20570;-61
2021/03/26 09:54:30;;;;;;;25.50;17.83;;;;;;;;;;5115518;28;20446;-62
2021/03/26 09:57:03;;;;;;;22.30;16.93;;;;;;;;;;5116090;28;20901;-58
2021/03/26 09:59:36;;;;;;;25.67;17.87;;;;;;;;;;5117056;28;20463;-57
2021/03/26 10:02:18;;;;;;;21.53;15.70;;;;;;;;;;5116840;28;20442;-60
2021/03/26 10:04:58;;;;;;;23.07;15.57;;;;;;;;;;5115863;28;20504;-62
2021/03/26 10:07:33;;;;;;;26.40;15.20;;;;;;;;;;5111516;28;20435;-53
2021/03/26 10:12:47;;;;;;;15.50;10.90;;;;;;;;;;5115697;28;20423;-62
2021/03/26 10:15:23;;;;;;;18.03;12.50;;;;;;;;;;5116418;28;20463;-56
2021/03/26 10:17:54;;;;;;;23.53;10.97;;;;;;;;;;5114498;28;20617;-56
2021/03/26 10:20:24;;;;;;;13.47;10.30;;;;;;;;;;5115742;28;20466;-57
2021/03/26 10:22:53;;;;;;;13.27;8.40;;;;;;;;;;5115411;28;20530;-55
2021/03/26 10:25:26;;;;;;;12.87;7.33;;;;;;;;;;5116025;28;20454;-58
2021/03/26 10:28:10;;;;;;;11.40;7.13;;;;;;;;;;5107028;28;20440;-61
2021/03/26 10:30:39;;;;;;;13.17;8.57;;;;;;;;;;5108552;28;20497;-55
2021/03/26 10:33:07;;;;;;;13.33;6.03;;;;;;;;;;5115246;28;20503;-57
2021/03/26 10:35:35;;;;;;;11.93;5.17;;;;;;;;;;5115217;28;20556;-59
2021/03/26 10:38:04;;;;;;;8.40;4.83;;;;;;;;;;5108356;28;20550;-57
2021/03/26 10:40:36;;;;;;;6.73;3.93;;;;;;;;;;5115116;28;20448;-57
2021/03/26 10:43:11;;;;;;;10.50;5.20;;;;;;;;;;5115140;28;20458;-56
2021/03/26 10:45:57;;;;;;;11.27;5.20;;;;;;;;;;5113788;28;20469;-56
2021/03/26 10:48:27;;;;;;;14.10;8.10;;;;;;;;;;5114660;28;20450;-61
2021/03/26 10:51:10;;;;;;;12.40;6.77;;;;;;;;;;5115006;28;20745;-56
2021/03/26 10:53:51;;;;;;;9.30;5.57;;;;;;;;;;5114400;28;20536;-56
2021/03/26 10:56:27;;;;;;;10.67;6.37;;;;;;;;;;5113964;28;20582;-58
2021/03/26 10:58:59;;;;;;;10.43;6.93;;;;;;;;;;5113549;28;20467;-54
2021/03/26 11:01:42;;;;;;;7.70;5.13;;;;;;;;;;5114089;28;20439;-54
2021/03/26 11:04:29;;;;;;;11.43;6.13;;;;;;;;;;5113649;28;20466;-58
2021/03/26 11:07:15;;;;;;;12.00;6.63;;;;;;;;;;5097332;28;20501;-53
2021/03/26 11:09:56;;;;;;;12.60;6.97;;;;;;;;;;5112508;28;20481;-59
2021/03/26 11:12:32;;;;;;;7.90;5.17;;;;;;;;;;5120584;28;20470;-57
2021/03/26 11:15:04;;;;;;;9.70;5.90;;;;;;;;;;5113511;28;20488;-56
2021/03/26 11:18:00;;;;;;;13.97;6.17;;;;;;;;;;5113167;28;20520;-57
2021/03/26 11:20:33;;;;;;;11.40;6.60;;;;;;;;;;5105651;28;20448;-58
2021/03/26 11:23:14;;;;;;;7.40;5.90;;;;;;;;;;5114389;28;20443;-59
2021/03/26 11:25:52;;;;;;;14.07;5.97;;;;;;;;;;5114167;28;20444;-62
2021/03/26 11:28:26;;;;;;;9.20;5.57;;;;;;;;;;5113464;28;20550;-58
2021/03/26 11:31:02;;;;;;;11.20;6.20;;;;;;;;;;5112712;28;20491;-61
2021/03/26 11:33:46;;;;;;;10.73;5.80;;;;;;;;;;5110638;28;20467;-54
2021/03/26 11:36:42;;;;;;;11.50;5.83;;;;;;;;;;5099803;28;20487;-54
2021/03/26 11:39:34;;;;;;;9.83;5.53;;;;;;;;;;5091442;28;20464;-57
2021/03/26 11:42:30;;;;;;;8.80;5.73;;;;;;;;;;5093229;28;20451;-61
2021/03/26 11:45:03;;;;;;;9.50;5.10;;;;;;;;;;5110685;28;20474;-54
2021/03/26 11:47:39;;;;;;;8.77;5.07;;;;;;;;;;5115621;28;20442;-55
2021/03/26 11:50:21;;;;;;;12.63;5.83;;;;;;;;;;5116964;28;20540;-56
2021/03/26 11:53:19;;;;;;;9.30;6.27;;;;;;;;;;5101484;28;20484;-56
2021/03/26 11:55:57;;;;;;;8.17;5.60;;;;;;;;;;5093573;28;20454;-52
2021/03/26 11:58:27;;;;;;;14.30;4.97;;;;;;;;;;5112716;28;20490;-53
2021/03/26 12:00:57;;;;;;;11.97;5.60;;;;;;;;;;5113081;28;20459;-54
2021/03/26 12:03:32;;;;;;;7.50;6.20;;;;;;;;;;5112286;28;20443;-57
2021/03/26 12:06:21;;;;;;;8.90;6.03;;;;;;;;;;5112629;28;20451;-61
2021/03/26 12:08:55;;;;;;;8.17;5.03;;;;;;;;;;5112222;28;20447;-53
2021/03/26 12:11:26;;;;;;;10.73;5.80;;;;;;;;;;5111886;28;20680;-59
2021/03/26 12:14:14;;;;;;;9.30;5.50;;;;;;;;;;5123168;28;20462;-55
2021/03/26 12:17:19;;;;;;;7.20;4.40;;;;;;;;;;5110541;28;20505;-61
2021/03/26 12:19:47;;;;;;;9.73;5.30;;;;;;;;;;5103294;28;20541;-59
2021/03/26 12:22:16;;;;;;;6.60;4.33;;;;;;;;;;5112471;28;20508;-56
2021/03/26 12:24:48;;;;;;;9.60;5.13;;;;;;;;;;5111357;28;20451;-59
2021/03/26 12:27:30;;;;;;;9.03;5.60;;;;;;;;;;5111810;28;20470;-60
2021/03/26 12:30:00;;;;;;;18.43;4.80;;;;;;;;;;5102038;28;20451;-56
2021/03/26 12:32:32;;;;;;;9.73;4.67;;;;;;;;;;5113284;28;20452;-60
2021/03/26 12:35:20;;;;;;;6.80;4.53;;;;;;;;;;5110639;28;20446;-58
2021/03/26 12:37:50;;;;;;;15.73;4.40;;;;;;;;;;5112867;28;20475;-61
2021/03/26 12:40:37;;;;;;;10.67;4.70;;;;;;;;;;5091843;28;20636;-58
2021/03/26 12:43:11;;;;;;;8.60;5.10;;;;;;;;;;5105616;28;20484;-54
2021/03/26 12:45:42;;;;;;;10.47;4.90;;;;;;;;;;5111661;28;20576;-60
2021/03/26 12:48:14;;;;;;;8.30;4.73;;;;;;;;;;5111595;28;20458;-60
2021/03/26 12:50:46;;;;;;;10.23;7.50;;;;;;;;;;5111453;28;20614;-58
2021/03/26 12:53:37;;;;;;;7.20;4.63;;;;;;;;;;5111019;28;20469;-58
2021/03/26 12:56:12;;;;;;;8.10;4.37;;;;;;;;;;5110661;28;20494;-55
2021/03/26 12:59:00;;;;;;;9.50;5.63;;;;;;;;;;5110192;28;20479;-56
2021/03/26 13:01:31;;;;;;;8.77;4.67;;;;;;;;;;5103197;28;20487;-58
2021/03/26 13:04:12;;;;;;;6.00;3.67;;;;;;;;;;5107933;28;20468;-58
2021/03/26 13:06:43;;;;;;;6.37;4.93;;;;;;;;;;5097425;28;20487;-60
2021/03/26 13:09:25;;;;;;;8.83;5.43;;;;;;;;;;5107212;28;20471;-58
2021/03/26 13:12:06;;;;;;;8.83;4.70;;;;;;;;;;5109765;28;20570;-55
2021/03/26 13:14:55;;;;;;;9.37;3.60;;;;;;;;;;5111751;28;20872;-58
2021/03/26 13:17:25;;;;;;;5.40;3.47;;;;;;;;;;5092091;28;20507;-57
2021/03/26 13:20:14;;;;;;;8.30;4.93;;;;;;;;;;5091826;28;20455;-54
2021/03/26 13:22:46;;;;;;;11.17;4.50;;;;;;;;;;5071463;28;20511;-55
2021/03/26 13:25:25;;;;;;;7.50;3.80;;;;;;;;;;5071756;28;20528;-58
2021/03/26 13:28:27;;;;;;;6.40;3.70;;;;;;;;;;5091654;28;20485;-60
2021/03/26 13:30:57;;;;;;;7.47;3.90;;;;;;;;;;5109961;28;20546;-57
2021/03/26 13:33:40;;;;;;;6.77;2.83;;;;;;;;;;5114778;28;20478;-58
2021/03/26 13:36:15;;;;;;;9.87;4.53;;;;;;;;;;5110313;28;20464;-61
2021/03/26 13:41:41;;;;;;;5.03;3.77;;;;;;;;;;5107375;28;20474;-59
2021/03/26 13:44:25;;;;;;;8.10;3.93;;;;;;;;;;5115798;28;20466;-57
2021/03/26 13:47:08;;;;;;;6.40;3.50;;;;;;;;;;5095998;28;20436;-58
2021/03/26 13:49:43;;;;;;;5.60;3.00;;;;;;;;;;5108807;28;20461;-56
2021/03/26 13:52:32;;;;;;;5.47;3.10;;;;;;;;;;5115388;28;20458;-60
2021/03/26 13:55:05;;;;;;;9.70;3.90;;;;;;;;;;5111711;28;20471;-61
2021/03/26 13:57:34;;;;;;;6.03;3.17;;;;;;;;;;5110520;28;20542;-59
2021/03/26 14:00:23;;;;;;;7.37;3.57;;;;;;;;;;5119282;28;20481;-59
2021/03/26 14:02:58;;;;;;;6.60;3.40;;;;;;;;;;5112684;28;20521;-58
2021/03/26 14:05:29;;;;;;;6.57;2.87;;;;;;;;;;5113427;28;20534;-55
2021/03/26 14:08:18;;;;;;;5.07;2.80;;;;;;;;;;5108333;28;20447;-58
2021/03/26 14:10:48;;;;;;;5.70;3.30;;;;;;;;;;5107021;28;20487;-60
2021/03/26 14:13:16;;;;;;;5.13;3.30;;;;;;;;;;5105916;28;20482;-57
2021/03/26 14:15:44;;;;;;;6.27;2.77;;;;;;;;;;5115920;28;20443;-60
2021/03/26 14:18:16;;;;;;;5.57;2.47;;;;;;;;;;5105216;28;20483;-57
2021/03/26 14:21:09;;;;;;;7.00;3.20;;;;;;;;;;5109973;28;20455;-61
2021/03/26 14:23:42;;;;;;;5.53;2.60;;;;;;;;;;5109601;28;20483;-56
2021/03/26 14:26:13;;;;;;;7.50;2.40;;;;;;;;;;5115388;28;20459;-59
2021/03/26 14:29:13;;;;;;;8.60;3.10;;;;;;;;;;5114774;28;20758;-58
2021/03/26 14:31:47;;;;;;;6.67;3.17;;;;;;;;;;5114422;28;20451;-59
2021/03/26 14:34:19;;;;;;;5.90;3.10;;;;;;;;;;5115523;28;20747;-59
2021/03/26 14:36:51;;;;;;;9.60;3.00;;;;;;;;;;5115445;28;20459;-57
2021/03/26 14:39:22;;;;;;;5.83;2.47;;;;;;;;;;5112824;28;20506;-61
2021/03/26 14:41:57;;;;;;;10.00;2.90;;;;;;;;;;5103821;28;20866;-55
2021/03/26 14:44:27;;;;;;;4.23;2.40;;;;;;;;;;5111436;28;20451;-60
2021/03/26 14:47:13;;;;;;;4.87;2.77;;;;;;;;;;5103144;28;20460;-60
2021/03/26 14:49:52;;;;;;;6.20;2.60;;;;;;;;;;5123735;28;20465;-57
2021/03/26 14:52:22;;;;;;;9.00;3.60;;;;;;;;;;5107079;28;20886;-58
2021/03/26 14:55:14;;;;;;;4.23;1.83;;;;;;;;;;5115013;28;20470;-56
2021/03/26 14:58:05;;;;;;;7.20;2.67;;;;;;;;;;5112065;28;20554;-54
2021/03/26 15:00:35;;;;;;;5.00;2.13;;;;;;;;;;5113120;28;20462;-60
2021/03/26 15:03:34;;;;;;;7.63;2.97;;;;;;;;;;5113652;28;20473;-60
2021/03/26 15:06:05;;;;;;;3.83;2.00;;;;;;;;;;5030166;28;20490;-60
2021/03/26 15:08:46;;;;;;;4.73;2.87;;;;;;;;;;5097289;28;20455;-59
2021/03/26 15:11:27;;;;;;;6.17;3.03;;;;;;;;;;5112471;28;20450;-57
2021/03/26 15:14:23;;;;;;;4.70;2.00;;;;;;;;;;5111691;28;20463;-60
2021/03/26 15:16:53;;;;;;;4.80;3.17;;;;;;;;;;5113890;28;20448;-59
2021/03/26 15:19:25;;;;;;;5.77;2.77;;;;;;;;;;5107194;28;20495;-59
2021/03/26 15:22:15;;;;;;;10.20;2.70;;;;;;;;;;5114093;28;20461;-56
2021/03/26 15:24:50;;;;;;;4.17;1.90;;;;;;;;;;5107339;28;20520;-60
2021/03/26 15:27:31;;;;;;;4.70;2.50;;;;;;;;;;5109809;28;20459;-56
2021/03/26 15:30:13;;;;;;;5.63;2.37;;;;;;;;;;5094550;28;20541;-57
2021/03/26 15:32:49;;;;;;;4.50;2.70;;;;;;;;;;5114316;28;20445;-54
2021/03/26 15:35:21;;;;;;;9.30;3.80;;;;;;;;;;5112659;28;20462;-60
2021/03/26 15:37:59;;;;;;;3.80;2.00;;;;;;;;;;5113618;28;20475;-59
2021/03/26 15:40:46;;;;;;;5.70;2.50;;;;;;;;;;5092145;28;20421;-55
2021/03/26 15:43:24;;;;;;;4.93;2.00;;;;;;;;;;5100932;28;20455;-58
2021/03/26 15:45:54;;;;;;;4.10;2.00;;;;;;;;;;5112583;28;20585;-56
2021/03/26 15:48:40;;;;;;;4.23;1.77;;;;;;;;;;5092435;28;20464;-58
2021/03/26 15:51:14;;;;;;;4.30;2.10;;;;;;;;;;5099043;28;20477;-51
2021/03/26 15:53:47;;;;;;;5.03;1.80;;;;;;;;;;5113528;28;20470;-57
2021/03/26 15:56:26;;;;;;;4.03;1.60;;;;;;;;;;5112576;28;20834;-55
2021/03/26 15:59:03;;;;;;;3.63;1.60;;;;;;;;;;5111477;28;20486;-58
2021/03/26 16:02:04;;;;;;;5.67;2.17;;;;;;;;;;5112011;28;20465;-54
2021/03/26 16:05:04;;;;;;;4.40;1.40;;;;;;;;;;5109842;28;20763;-57
2021/03/26 16:07:43;;;;;;;5.60;2.40;;;;;;;;;;5092325;28;20472;-63
2021/03/26 16:10:21;;;;;;;3.23;1.60;;;;;;;;;;5103069;28;20610;-57
2021/03/26 16:13:11;;;;;;;3.87;1.80;;;;;;;;;;5112176;28;20455;-60
2021/03/26 16:15:47;;;;;;;5.97;1.43;;;;;;;;;;5111807;28;20439;-55